sensor_id;sensor_type;location;lat;lon;timestamp;temperature;humidity
2106;DHT22;1059;52.548;13.408;2023-02-28T00:01:12;2.60;99.90
2106;DHT22;1059;52.548;13.408;2023-02-28T00:03:39;2.60;99.90
2106;DHT22;1059;52.548;13.408;2023-02-28T00:06:09;2.60;99.90
2106;DHT22;1059;52.548;13.408;2023-02-28T00:08:36;2.70;99.90
2106;DHT22;1059;52.548;13.408;2023-02-28T00:11:03;2.70;99.90
2106;DHT22;1059;52.548;13.408;2023-02-28T00:13:30;2.70;99.90
2106;DHT22;1059;52.548;13.408;2023-02-28T00:16:03;2.60;99.90
2106;DHT22;1059;52.548;13.408;2023-02-28T00:18:30;2.50;99.90
2106;DHT22;1059;52.548;13.408;2023-02-28T00:20:58;2.50;99.90
2106;DHT22;1059;52.548;13.408;2023-02-28T00:23:25;2.60;99.90
2106;DHT22;1059;52.548;13.408;2023-02-28T00:25:52;2.60;99.90
2106;DHT22;1059;52.548;13.408;2023-02-28T00:28:19;2.70;99.90
2106;DHT22;1059;52.548;13.408;2023-02-28T00:30:46;2.90;99.90
2106;DHT22;1059;52.548;13.408;2023-02-28T00:33:15;3.00;99.90
2106;DHT22;1059;52.548;13.408;2023-02-28T00:35:43;2.90;99.90
2106;DHT22;1059;52.548;13.408;2023-02-28T00:38:11;2.90;99.90
2106;DHT22;1059;52.548;13.408;2023-02-28T00:40:38;2.80;99.90
2106;DHT22;1059;52.548;13.408;2023-02-28T00:43:05;2.80;99.90
2106;DHT22;1059;52.548;13.408;2023-02-28T00:45:32;2.80;99.90
2106;DHT22;1059;52.548;13.408;2023-02-28T00:47:59;2.90;99.90
2106;DHT22;1059;52.548;13.408;2023-02-28T00:50:27;2.80;99.90
2106;DHT22;1059;52.548;13.408;2023-02-28T00:52:54;2.90;99.90
2106;DHT22;1059;52.548;13.408;2023-02-28T00:55:21;2.80;99.90
2106;DHT22;1059;52.548;13.408;2023-02-28T00:57:47;2.80;99.90
2106;DHT22;1059;52.548;13.408;2023-02-28T01:00:15;2.80;99.90
2106;DHT22;1059;52.548;13.408;2023-02-28T01:02:42;2.80;99.90
2106;DHT22;1059;52.548;13.408;2023-02-28T01:05:09;2.90;99.90
2106;DHT22;1059;52.548;13.408;2023-02-28T01:07:37;2.90;99.90
2106;DHT22;1059;52.548;13.408;2023-02-28T01:10:04;3.00;99.90
2106;DHT22;1059;52.548;13.408;2023-02-28T01:12:32;2.90;99.90
2106;DHT22;1059;52.548;13.408;2023-02-28T01:14:58;3.00;99.90
2106;DHT22;1059;52.548;13.408;2023-02-28T01:17:25;3.00;99.90
2106;DHT22;1059;52.548;13.408;2023-02-28T01:19:53;3.00;99.90
2106;DHT22;1059;52.548;13.408;2023-02-28T01:22:20;3.00;99.90
2106;DHT22;1059;52.548;13.408;2023-02-28T01:24:48;2.90;99.90
2106;DHT22;1059;52.548;13.408;2023-02-28T01:27:15;2.90;99.90
2106;DHT22;1059;52.548;13.408;2023-02-28T01:29:42;2.90;99.90
2106;DHT22;1059;52.548;13.408;2023-02-28T01:32:09;2.80;99.90
2106;DHT22;1059;52.548;13.408;2023-02-28T01:34:36;2.70;99.90
2106;DHT22;1059;52.548;13.408;2023-02-28T01:37:03;2.70;99.90
2106;DHT22;1059;52.548;13.408;2023-02-28T01:39:30;2.70;99.90
2106;DHT22;1059;52.548;13.408;2023-02-28T01:41:58;2.80;99.90
2106;DHT22;1059;52.548;13.408;2023-02-28T01:45:00;2.80;99.90
2106;DHT22;1059;52.548;13.408;2023-02-28T01:47:30;2.80;99.90
2106;DHT22;1059;52.548;13.408;2023-02-28T01:49:59;2.80;99.90
2106;DHT22;1059;52.548;13.408;2023-02-28T01:52:27;2.90;99.90
2106;DHT22;1059;52.548;13.408;2023-02-28T01:54:56;2.90;99.90
2106;DHT22;1059;52.548;13.408;2023-02-28T01:57:29;2.90;99.90
2106;DHT22;1059;52.548;13.408;2023-02-28T02:00:06;2.80;99.90
2106;DHT22;1059;52.548;13.408;2023-02-28T02:02:36;3.00;99.90
2106;DHT22;1059;52.548;13.408;2023-02-28T02:05:05;3.10;99.90
2106;DHT22;1059;52.548;13.408;2023-02-28T02:07:34;3.10;99.90
2106;DHT22;1059;52.548;13.408;2023-02-28T02:10:04;3.10;99.90
2106;DHT22;1059;52.548;13.408;2023-02-28T02:12:43;3.10;99.90
2106;DHT22;1059;52.548;13.408;2023-02-28T02:15:16;2.90;99.90
2106;DHT22;1059;52.548;13.408;2023-02-28T02:17:45;2.90;99.90
2106;DHT22;1059;52.548;13.408;2023-02-28T02:20:46;2.80;99.90
2106;DHT22;1059;52.548;13.408;2023-02-28T02:23:50;2.70;99.90
2106;DHT22;1059;52.548;13.408;2023-02-28T02:26:51;2.70;99.90
2106;DHT22;1059;52.548;13.408;2023-02-28T02:29:47;2.70;99.90
2106;DHT22;1059;52.548;13.408;2023-02-28T02:32:29;2.80;99.90
2106;DHT22;1059;52.548;13.408;2023-02-28T02:35:10;2.90;99.90
2106;DHT22;1059;52.548;13.408;2023-02-28T02:37:43;2.90;99.90
2106;DHT22;1059;52.548;13.408;2023-02-28T02:40:16;2.80;99.90
2106;DHT22;1059;52.548;13.408;2023-02-28T02:42:50;2.80;99.90
2106;DHT22;1059;52.548;13.408;2023-02-28T02:45:21;2.80;99.90
2106;DHT22;1059;52.548;13.408;2023-02-28T02:47:50;2.80;99.90
2106;DHT22;1059;52.548;13.408;2023-02-28T02:50:24;2.80;99.90
2106;DHT22;1059;52.548;13.408;2023-02-28T02:52:55;2.70;99.90
2106;DHT22;1059;52.548;13.408;2023-02-28T02:55:23;2.70;99.90
2106;DHT22;1059;52.548;13.408;2023-02-28T02:57:53;2.70;99.90
2106;DHT22;1059;52.548;13.408;2023-02-28T03:00:26;2.60;99.90
2106;DHT22;1059;52.548;13.408;2023-02-28T03:02:54;2.60;99.90
2106;DHT22;1059;52.548;13.408;2023-02-28T03:05:26;2.50;99.90
2106;DHT22;1059;52.548;13.408;2023-02-28T03:07:53;2.40;99.90
2106;DHT22;1059;52.548;13.408;2023-02-28T03:10:30;2.30;99.90
2106;DHT22;1059;52.548;13.408;2023-02-28T03:13:24;2.20;99.90
2106;DHT22;1059;52.548;13.408;2023-02-28T03:16:03;2.20;99.90
2106;DHT22;1059;52.548;13.408;2023-02-28T03:18:42;2.10;99.90
2106;DHT22;1059;52.548;13.408;2023-02-28T03:21:20;2.10;99.90
2106;DHT22;1059;52.548;13.408;2023-02-28T03:23:57;1.90;99.90
2106;DHT22;1059;52.548;13.408;2023-02-28T03:26:26;1.90;99.90
2106;DHT22;1059;52.548;13.408;2023-02-28T03:29:00;2.00;99.90
2106;DHT22;1059;52.548;13.408;2023-02-28T03:31:30;2.10;99.90
2106;DHT22;1059;52.548;13.408;2023-02-28T03:34:04;2.00;99.90
2106;DHT22;1059;52.548;13.408;2023-02-28T03:36:39;2.00;99.90
2106;DHT22;1059;52.548;13.408;2023-02-28T03:39:12;1.90;99.90
2106;DHT22;1059;52.548;13.408;2023-02-28T03:41:43;1.80;99.90
2106;DHT22;1059;52.548;13.408;2023-02-28T03:44:17;1.90;99.90
2106;DHT22;1059;52.548;13.408;2023-02-28T03:46:49;1.90;99.90
2106;DHT22;1059;52.548;13.408;2023-02-28T03:49:22;1.90;99.90
2106;DHT22;1059;52.548;13.408;2023-02-28T03:51:52;1.80;99.90
2106;DHT22;1059;52.548;13.408;2023-02-28T03:54:25;1.90;99.90
2106;DHT22;1059;52.548;13.408;2023-02-28T03:56:57;1.90;99.90
2106;DHT22;1059;52.548;13.408;2023-02-28T03:59:29;1.80;99.90
2106;DHT22;1059;52.548;13.408;2023-02-28T04:01:58;1.80;99.90
2106;DHT22;1059;52.548;13.408;2023-02-28T04:04:25;1.90;99.90
2106;DHT22;1059;52.548;13.408;2023-02-28T04:07:01;1.90;99.90
2106;DHT22;1059;52.548;13.408;2023-02-28T04:09:28;1.90;99.90
2106;DHT22;1059;52.548;13.408;2023-02-28T04:11:55;2.00;99.90
2106;DHT22;1059;52.548;13.408;2023-02-28T04:14:22;1.90;99.90
2106;DHT22;1059;52.548;13.408;2023-02-28T04:16:49;1.90;99.90
2106;DHT22;1059;52.548;13.408;2023-02-28T04:19:17;1.90;99.90
2106;DHT22;1059;52.548;13.408;2023-02-28T04:21:45;1.90;99.90
2106;DHT22;1059;52.548;13.408;2023-02-28T04:24:15;2.00;99.90
2106;DHT22;1059;52.548;13.408;2023-02-28T04:26:44;1.90;99.90
2106;DHT22;1059;52.548;13.408;2023-02-28T04:29:13;1.90;99.90
2106;DHT22;1059;52.548;13.408;2023-02-28T04:31:40;1.90;99.90
2106;DHT22;1059;52.548;13.408;2023-02-28T04:34:07;1.90;99.90
2106;DHT22;1059;52.548;13.408;2023-02-28T04:36:34;1.90;99.90
2106;DHT22;1059;52.548;13.408;2023-02-28T04:39:01;1.90;99.90
2106;DHT22;1059;52.548;13.408;2023-02-28T04:41:30;1.90;99.90
2106;DHT22;1059;52.548;13.408;2023-02-28T04:43:57;1.90;99.90
2106;DHT22;1059;52.548;13.408;2023-02-28T04:46:24;1.80;99.90
2106;DHT22;1059;52.548;13.408;2023-02-28T04:48:51;1.80;99.90
2106;DHT22;1059;52.548;13.408;2023-02-28T04:51:19;1.70;99.90
2106;DHT22;1059;52.548;13.408;2023-02-28T04:53:46;1.70;99.90
2106;DHT22;1059;52.548;13.408;2023-02-28T04:56:15;1.70;99.90
2106;DHT22;1059;52.548;13.408;2023-02-28T04:58:44;1.70;99.90
2106;DHT22;1059;52.548;13.408;2023-02-28T05:01:20;1.60;99.90
2106;DHT22;1059;52.548;13.408;2023-02-28T05:03:48;1.50;99.90
2106;DHT22;1059;52.548;13.408;2023-02-28T05:06:15;1.50;99.90
2106;DHT22;1059;52.548;13.408;2023-02-28T05:08:42;1.50;99.90
2106;DHT22;1059;52.548;13.408;2023-02-28T05:11:14;1.50;99.90
2106;DHT22;1059;52.548;13.408;2023-02-28T05:13:43;1.50;99.90
2106;DHT22;1059;52.548;13.408;2023-02-28T05:16:10;1.50;99.90
2106;DHT22;1059;52.548;13.408;2023-02-28T05:18:36;1.50;99.90
2106;DHT22;1059;52.548;13.408;2023-02-28T05:21:03;1.40;99.90
2106;DHT22;1059;52.548;13.408;2023-02-28T05:23:30;1.40;99.90
2106;DHT22;1059;52.548;13.408;2023-02-28T05:25:57;1.40;99.90
2106;DHT22;1059;52.548;13.408;2023-02-28T05:28:24;1.50;99.90
2106;DHT22;1059;52.548;13.408;2023-02-28T05:30:53;1.40;99.90
2106;DHT22;1059;52.548;13.408;2023-02-28T05:33:19;1.40;99.90
2106;DHT22;1059;52.548;13.408;2023-02-28T05:35:46;1.30;99.90
2106;DHT22;1059;52.548;13.408;2023-02-28T05:38:13;1.30;99.90
2106;DHT22;1059;52.548;13.408;2023-02-28T05:40:40;1.20;99.90
2106;DHT22;1059;52.548;13.408;2023-02-28T05:43:10;1.10;99.90
2106;DHT22;1059;52.548;13.408;2023-02-28T05:45:37;1.20;99.90
2106;DHT22;1059;52.548;13.408;2023-02-28T05:48:05;1.20;99.90
2106;DHT22;1059;52.548;13.408;2023-02-28T05:50:32;1.30;99.90
2106;DHT22;1059;52.548;13.408;2023-02-28T05:52:59;1.30;99.90
2106;DHT22;1059;52.548;13.408;2023-02-28T05:55:26;1.30;99.90
2106;DHT22;1059;52.548;13.408;2023-02-28T05:57:53;1.30;99.90
2106;DHT22;1059;52.548;13.408;2023-02-28T06:00:20;1.40;99.90
2106;DHT22;1059;52.548;13.408;2023-02-28T06:02:47;1.30;99.90
2106;DHT22;1059;52.548;13.408;2023-02-28T06:05:17;1.40;99.90
2106;DHT22;1059;52.548;13.408;2023-02-28T06:07:44;1.30;99.90
2106;DHT22;1059;52.548;13.408;2023-02-28T06:10:11;1.30;99.90
2106;DHT22;1059;52.548;13.408;2023-02-28T06:12:39;1.30;99.90
2106;DHT22;1059;52.548;13.408;2023-02-28T06:15:09;1.40;99.90
2106;DHT22;1059;52.548;13.408;2023-02-28T06:17:37;1.40;99.90
2106;DHT22;1059;52.548;13.408;2023-02-28T06:20:05;1.30;99.90
2106;DHT22;1059;52.548;13.408;2023-02-28T06:22:34;1.20;99.90
2106;DHT22;1059;52.548;13.408;2023-02-28T06:25:01;1.10;99.90
2106;DHT22;1059;52.548;13.408;2023-02-28T06:27:28;1.00;99.90
2106;DHT22;1059;52.548;13.408;2023-02-28T06:29:55;1.00;99.90
2106;DHT22;1059;52.548;13.408;2023-02-28T06:32:22;0.90;99.90
2106;DHT22;1059;52.548;13.408;2023-02-28T06:34:48;0.80;99.90
2106;DHT22;1059;52.548;13.408;2023-02-28T06:37:16;0.80;99.90
2106;DHT22;1059;52.548;13.408;2023-02-28T06:39:44;0.80;99.90
2106;DHT22;1059;52.548;13.408;2023-02-28T06:42:11;0.80;99.90
2106;DHT22;1059;52.548;13.408;2023-02-28T06:44:38;0.80;99.90
2106;DHT22;1059;52.548;13.408;2023-02-28T06:47:06;0.90;99.90
2106;DHT22;1059;52.548;13.408;2023-02-28T06:49:34;1.00;99.90
2106;DHT22;1059;52.548;13.408;2023-02-28T06:52:02;1.10;99.90
2106;DHT22;1059;52.548;13.408;2023-02-28T06:54:29;1.10;99.90
2106;DHT22;1059;52.548;13.408;2023-02-28T06:56:58;1.10;99.90
2106;DHT22;1059;52.548;13.408;2023-02-28T06:59:25;1.00;99.90
2106;DHT22;1059;52.548;13.408;2023-02-28T07:01:52;1.00;99.90
2106;DHT22;1059;52.548;13.408;2023-02-28T07:04:20;1.10;99.90
2106;DHT22;1059;52.548;13.408;2023-02-28T07:06:47;1.10;99.90
2106;DHT22;1059;52.548;13.408;2023-02-28T07:09:14;1.10;99.90
2106;DHT22;1059;52.548;13.408;2023-02-28T07:11:41;1.10;99.90
2106;DHT22;1059;52.548;13.408;2023-02-28T07:14:09;1.20;99.90
2106;DHT22;1059;52.548;13.408;2023-02-28T07:16:36;1.30;99.90
2106;DHT22;1059;52.548;13.408;2023-02-28T07:19:03;1.40;99.90
2106;DHT22;1059;52.548;13.408;2023-02-28T07:21:30;1.50;99.90
2106;DHT22;1059;52.548;13.408;2023-02-28T07:23:57;1.50;99.90
2106;DHT22;1059;52.548;13.408;2023-02-28T07:26:23;1.50;99.90
2106;DHT22;1059;52.548;13.408;2023-02-28T07:28:50;1.60;99.90
2106;DHT22;1059;52.548;13.408;2023-02-28T07:31:19;1.60;99.90
2106;DHT22;1059;52.548;13.408;2023-02-28T07:33:46;1.60;99.90
2106;DHT22;1059;52.548;13.408;2023-02-28T07:36:14;1.50;99.90
2106;DHT22;1059;52.548;13.408;2023-02-28T07:38:46;1.40;99.90
2106;DHT22;1059;52.548;13.408;2023-02-28T07:41:14;1.40;99.90
2106;DHT22;1059;52.548;13.408;2023-02-28T07:43:40;1.40;99.90
2106;DHT22;1059;52.548;13.408;2023-02-28T07:46:09;1.40;99.90
2106;DHT22;1059;52.548;13.408;2023-02-28T07:48:38;1.40;99.90
2106;DHT22;1059;52.548;13.408;2023-02-28T07:51:06;1.50;99.90
2106;DHT22;1059;52.548;13.408;2023-02-28T07:53:33;1.60;99.90
2106;DHT22;1059;52.548;13.408;2023-02-28T07:56:01;1.70;99.90
2106;DHT22;1059;52.548;13.408;2023-02-28T07:58:29;1.90;99.90
2106;DHT22;1059;52.548;13.408;2023-02-28T08:00:56;2.00;99.90
2106;DHT22;1059;52.548;13.408;2023-02-28T08:03:24;2.00;99.90
2106;DHT22;1059;52.548;13.408;2023-02-28T08:05:52;2.10;99.90
2106;DHT22;1059;52.548;13.408;2023-02-28T08:08:19;2.20;99.90
2106;DHT22;1059;52.548;13.408;2023-02-28T08:10:46;2.30;99.90
2106;DHT22;1059;52.548;13.408;2023-02-28T08:13:12;2.50;99.90
2106;DHT22;1059;52.548;13.408;2023-02-28T08:15:41;2.60;99.90
2106;DHT22;1059;52.548;13.408;2023-02-28T08:18:08;2.70;99.90
2106;DHT22;1059;52.548;13.408;2023-02-28T08:20:35;2.70;99.90
2106;DHT22;1059;52.548;13.408;2023-02-28T08:23:03;2.80;99.90
2106;DHT22;1059;52.548;13.408;2023-02-28T08:25:30;2.80;99.90
2106;DHT22;1059;52.548;13.408;2023-02-28T08:27:57;2.90;99.90
2106;DHT22;1059;52.548;13.408;2023-02-28T08:30:23;2.90;99.90
2106;DHT22;1059;52.548;13.408;2023-02-28T08:32:50;3.00;99.90
2106;DHT22;1059;52.548;13.408;2023-02-28T08:35:17;3.10;99.90
2106;DHT22;1059;52.548;13.408;2023-02-28T08:37:44;3.20;99.90
2106;DHT22;1059;52.548;13.408;2023-02-28T08:40:12;3.20;99.90
2106;DHT22;1059;52.548;13.408;2023-02-28T08:42:43;3.30;99.90
2106;DHT22;1059;52.548;13.408;2023-02-28T08:45:10;3.30;99.90
2106;DHT22;1059;52.548;13.408;2023-02-28T08:47:37;3.30;99.90
2106;DHT22;1059;52.548;13.408;2023-02-28T08:50:05;3.30;99.90
2106;DHT22;1059;52.548;13.408;2023-02-28T08:52:33;3.40;99.90
2106;DHT22;1059;52.548;13.408;2023-02-28T08:55:00;3.40;99.90
2106;DHT22;1059;52.548;13.408;2023-02-28T08:57:28;3.50;99.90
2106;DHT22;1059;52.548;13.408;2023-02-28T08:59:55;3.60;99.90
2106;DHT22;1059;52.548;13.408;2023-02-28T09:02:22;3.70;99.90
2106;DHT22;1059;52.548;13.408;2023-02-28T09:04:49;3.80;99.90
2106;DHT22;1059;52.548;13.408;2023-02-28T09:07:16;3.80;99.90
2106;DHT22;1059;52.548;13.408;2023-02-28T09:09:43;3.70;99.40
2106;DHT22;1059;52.548;13.408;2023-02-28T09:12:20;3.60;99.80
2106;DHT22;1059;52.548;13.408;2023-02-28T09:14:48;3.70;99.90
2106;DHT22;1059;52.548;13.408;2023-02-28T09:17:15;3.60;97.00
2106;DHT22;1059;52.548;13.408;2023-02-28T09:19:42;3.60;96.60
2106;DHT22;1059;52.548;13.408;2023-02-28T09:22:09;3.60;96.50
2106;DHT22;1059;52.548;13.408;2023-02-28T09:24:37;3.70;97.90
2106;DHT22;1059;52.548;13.408;2023-02-28T09:27:04;3.70;96.80
2106;DHT22;1059;52.548;13.408;2023-02-28T09:29:32;3.80;98.90
2106;DHT22;1059;52.548;13.408;2023-02-28T09:32:01;3.70;95.90
2106;DHT22;1059;52.548;13.408;2023-02-28T09:34:28;3.60;93.90
2106;DHT22;1059;52.548;13.408;2023-02-28T09:36:56;3.70;95.50
2106;DHT22;1059;52.548;13.408;2023-02-28T09:39:23;3.80;95.80
2106;DHT22;1059;52.548;13.408;2023-02-28T09:41:52;3.70;93.40
2106;DHT22;1059;52.548;13.408;2023-02-28T09:44:24;3.70;93.90
2106;DHT22;1059;52.548;13.408;2023-02-28T09:46:57;3.80;94.30
2106;DHT22;1059;52.548;13.408;2023-02-28T09:49:32;3.90;95.20
2106;DHT22;1059;52.548;13.408;2023-02-28T09:52:03;4.00;93.00
2106;DHT22;1059;52.548;13.408;2023-02-28T09:54:32;4.00;92.70
2106;DHT22;1059;52.548;13.408;2023-02-28T09:57:04;4.10;91.80
2106;DHT22;1059;52.548;13.408;2023-02-28T09:59:39;4.00;90.30
2106;DHT22;1059;52.548;13.408;2023-02-28T10:05:05;4.00;92.50
2106;DHT22;1059;52.548;13.408;2023-02-28T10:07:50;4.20;94.10
2106;DHT22;1059;52.548;13.408;2023-02-28T10:10:24;4.30;91.60
2106;DHT22;1059;52.548;13.408;2023-02-28T10:12:54;4.40;90.90
2106;DHT22;1059;52.548;13.408;2023-02-28T10:15:24;4.30;90.10
2106;DHT22;1059;52.548;13.408;2023-02-28T10:17:54;4.30;87.90
2106;DHT22;1059;52.548;13.408;2023-02-28T10:20:25;4.30;88.70
2106;DHT22;1059;52.548;13.408;2023-02-28T10:22:58;4.40;91.90
2106;DHT22;1059;52.548;13.408;2023-02-28T10:25:33;4.40;87.00
2106;DHT22;1059;52.548;13.408;2023-02-28T10:28:07;4.40;90.80
2106;DHT22;1059;52.548;13.408;2023-02-28T10:30:36;4.50;88.20
2106;DHT22;1059;52.548;13.408;2023-02-28T10:33:03;4.40;84.50
2106;DHT22;1059;52.548;13.408;2023-02-28T10:35:32;4.20;84.40
2106;DHT22;1059;52.548;13.408;2023-02-28T10:38:01;4.30;85.60
2106;DHT22;1059;52.548;13.408;2023-02-28T10:40:36;4.20;84.20
2106;DHT22;1059;52.548;13.408;2023-02-28T10:43:05;4.30;89.10
2106;DHT22;1059;52.548;13.408;2023-02-28T10:45:33;4.30;84.40
2106;DHT22;1059;52.548;13.408;2023-02-28T10:48:04;4.40;89.50
2106;DHT22;1059;52.548;13.408;2023-02-28T10:50:43;4.50;86.20
2106;DHT22;1059;52.548;13.408;2023-02-28T10:53:27;4.60;84.80
2106;DHT22;1059;52.548;13.408;2023-02-28T10:56:00;4.70;84.80
2106;DHT22;1059;52.548;13.408;2023-02-28T10:58:29;4.90;84.60
2106;DHT22;1059;52.548;13.408;2023-02-28T11:00:56;5.00;83.80
2106;DHT22;1059;52.548;13.408;2023-02-28T11:03:29;5.00;81.10
2106;DHT22;1059;52.548;13.408;2023-02-28T11:05:58;5.00;83.30
2106;DHT22;1059;52.548;13.408;2023-02-28T11:08:25;4.90;77.50
2106;DHT22;1059;52.548;13.408;2023-02-28T11:10:55;5.00;77.40
2106;DHT22;1059;52.548;13.408;2023-02-28T11:16:13;4.90;77.40
2106;DHT22;1059;52.548;13.408;2023-02-28T11:18:43;4.90;74.30
2106;DHT22;1059;52.548;13.408;2023-02-28T11:21:18;4.80;73.70
2106;DHT22;1059;52.548;13.408;2023-02-28T11:23:47;4.90;77.50
2106;DHT22;1059;52.548;13.408;2023-02-28T11:26:17;5.00;78.00
2106;DHT22;1059;52.548;13.408;2023-02-28T11:29:10;5.00;77.60
2106;DHT22;1059;52.548;13.408;2023-02-28T11:31:37;5.00;71.70
2106;DHT22;1059;52.548;13.408;2023-02-28T11:34:23;5.10;75.70
2106;DHT22;1059;52.548;13.408;2023-02-28T11:36:54;5.20;79.30
2106;DHT22;1059;52.548;13.408;2023-02-28T11:39:22;5.30;80.80
2106;DHT22;1059;52.548;13.408;2023-02-28T11:42:04;5.30;76.80
2106;DHT22;1059;52.548;13.408;2023-02-28T11:44:48;5.40;75.70
2106;DHT22;1059;52.548;13.408;2023-02-28T11:47:26;5.40;73.50
2106;DHT22;1059;52.548;13.408;2023-02-28T11:50:09;5.40;73.90
2106;DHT22;1059;52.548;13.408;2023-02-28T11:52:45;5.40;72.40
2106;DHT22;1059;52.548;13.408;2023-02-28T11:55:18;5.50;75.10
2106;DHT22;1059;52.548;13.408;2023-02-28T11:58:00;5.60;74.00
2106;DHT22;1059;52.548;13.408;2023-02-28T12:00:43;5.70;70.80
2106;DHT22;1059;52.548;13.408;2023-02-28T12:03:21;5.70;70.40
2106;DHT22;1059;52.548;13.408;2023-02-28T12:05:58;5.80;70.90
2106;DHT22;1059;52.548;13.408;2023-02-28T12:08:42;6.50;72.00
2106;DHT22;1059;52.548;13.408;2023-02-28T12:11:14;7.90;64.50
2106;DHT22;1059;52.548;13.408;2023-02-28T12:13:50;9.40;55.80
2106;DHT22;1059;52.548;13.408;2023-02-28T12:16:41;10.80;50.70
2106;DHT22;1059;52.548;13.408;2023-02-28T12:19:17;12.20;42.40
2106;DHT22;1059;52.548;13.408;2023-02-28T12:22:11;13.30;36.00
2106;DHT22;1059;52.548;13.408;2023-02-28T12:25:18;14.30;33.70
2106;DHT22;1059;52.548;13.408;2023-02-28T12:27:48;15.30;29.80
2106;DHT22;1059;52.548;13.408;2023-02-28T12:30:19;16.20;27.60
2106;DHT22;1059;52.548;13.408;2023-02-28T12:32:51;17.20;26.50
2106;DHT22;1059;52.548;13.408;2023-02-28T12:35:23;17.80;23.10
2106;DHT22;1059;52.548;13.408;2023-02-28T12:37:55;18.50;22.00
2106;DHT22;1059;52.548;13.408;2023-02-28T12:40:27;18.50;20.30
2106;DHT22;1059;52.548;13.408;2023-02-28T12:42:58;18.40;18.10
2106;DHT22;1059;52.548;13.408;2023-02-28T12:45:30;18.10;17.90
2106;DHT22;1059;52.548;13.408;2023-02-28T12:48:01;18.30;18.60
2106;DHT22;1059;52.548;13.408;2023-02-28T12:50:30;18.40;17.50
2106;DHT22;1059;52.548;13.408;2023-02-28T12:53:02;19.00;18.10
2106;DHT22;1059;52.548;13.408;2023-02-28T12:55:38;19.70;17.70
2106;DHT22;1059;52.548;13.408;2023-02-28T12:58:13;20.40;18.60
2106;DHT22;1059;52.548;13.408;2023-02-28T13:00:58;20.90;16.10
2106;DHT22;1059;52.548;13.408;2023-02-28T13:03:44;20.60;14.70
2106;DHT22;1059;52.548;13.408;2023-02-28T13:06:52;20.70;14.20
2106;DHT22;1059;52.548;13.408;2023-02-28T13:09:24;21.00;16.00
2106;DHT22;1059;52.548;13.408;2023-02-28T13:11:53;21.20;14.10
2106;DHT22;1059;52.548;13.408;2023-02-28T13:14:27;20.10;12.40
2106;DHT22;1059;52.548;13.408;2023-02-28T13:17:02;20.00;13.40
2106;DHT22;1059;52.548;13.408;2023-02-28T13:19:32;20.20;13.20
2106;DHT22;1059;52.548;13.408;2023-02-28T13:22:00;20.00;13.80
2106;DHT22;1059;52.548;13.408;2023-02-28T13:24:43;20.40;14.30
2106;DHT22;1059;52.548;13.408;2023-02-28T13:27:36;20.50;12.90
2106;DHT22;1059;52.548;13.408;2023-02-28T13:33:22;21.30;13.30
2106;DHT22;1059;52.548;13.408;2023-02-28T13:36:07;21.70;15.10
2106;DHT22;1059;52.548;13.408;2023-02-28T13:38:40;20.40;11.10
2106;DHT22;1059;52.548;13.408;2023-02-28T13:41:44;19.60;12.40
2106;DHT22;1059;52.548;13.408;2023-02-28T13:44:15;19.20;12.20
2106;DHT22;1059;52.548;13.408;2023-02-28T13:47:20;18.80;13.30
2106;DHT22;1059;52.548;13.408;2023-02-28T13:49:48;18.20;12.60
2106;DHT22;1059;52.548;13.408;2023-02-28T13:52:20;18.30;14.50
2106;DHT22;1059;52.548;13.408;2023-02-28T13:54:59;18.50;13.20
2106;DHT22;1059;52.548;13.408;2023-02-28T13:57:37;18.80;12.90
2106;DHT22;1059;52.548;13.408;2023-02-28T14:00:20;17.70;11.90
2106;DHT22;1059;52.548;13.408;2023-02-28T14:03:09;17.70;12.80
2106;DHT22;1059;52.548;13.408;2023-02-28T14:05:38;17.60;13.10
2106;DHT22;1059;52.548;13.408;2023-02-28T14:08:07;17.90;13.30
2106;DHT22;1059;52.548;13.408;2023-02-28T14:10:42;17.90;13.70
2106;DHT22;1059;52.548;13.408;2023-02-28T14:13:37;18.20;13.40
2106;DHT22;1059;52.548;13.408;2023-02-28T14:16:13;17.50;12.80
2106;DHT22;1059;52.548;13.408;2023-02-28T14:18:42;17.40;13.80
2106;DHT22;1059;52.548;13.408;2023-02-28T14:21:21;17.40;13.30
2106;DHT22;1059;52.548;13.408;2023-02-28T14:24:20;17.60;15.30
2106;DHT22;1059;52.548;13.408;2023-02-28T14:32:54;17.40;14.20
2106;DHT22;1059;52.548;13.408;2023-02-28T14:36:01;17.70;13.80
2106;DHT22;1059;52.548;13.408;2023-02-28T14:38:32;17.80;12.80
2106;DHT22;1059;52.548;13.408;2023-02-28T14:41:04;18.30;15.70
2106;DHT22;1059;52.548;13.408;2023-02-28T14:43:32;18.70;13.90
2106;DHT22;1059;52.548;13.408;2023-02-28T14:46:00;18.80;13.50
2106;DHT22;1059;52.548;13.408;2023-02-28T14:48:29;18.20;13.10
2106;DHT22;1059;52.548;13.408;2023-02-28T14:50:57;17.60;13.20
2106;DHT22;1059;52.548;13.408;2023-02-28T14:53:27;16.70;13.60
2106;DHT22;1059;52.548;13.408;2023-02-28T14:55:55;16.10;14.00
2106;DHT22;1059;52.548;13.408;2023-02-28T14:58:24;15.50;14.60
2106;DHT22;1059;52.548;13.408;2023-02-28T15:00:53;15.80;15.20
2106;DHT22;1059;52.548;13.408;2023-02-28T15:03:21;15.60;14.90
2106;DHT22;1059;52.548;13.408;2023-02-28T15:05:55;15.60;15.30
2106;DHT22;1059;52.548;13.408;2023-02-28T15:08:22;15.80;15.30
2106;DHT22;1059;52.548;13.408;2023-02-28T15:10:55;15.90;14.90
2106;DHT22;1059;52.548;13.408;2023-02-28T15:13:23;15.70;15.20
2106;DHT22;1059;52.548;13.408;2023-02-28T15:15:55;15.30;15.20
2106;DHT22;1059;52.548;13.408;2023-02-28T15:18:28;14.40;15.20
2106;DHT22;1059;52.548;13.408;2023-02-28T15:21:02;14.20;16.20
2106;DHT22;1059;52.548;13.408;2023-02-28T15:23:30;13.60;16.50
2106;DHT22;1059;52.548;13.408;2023-02-28T15:25:58;13.80;17.00
2106;DHT22;1059;52.548;13.408;2023-02-28T15:28:26;13.90;17.30
2106;DHT22;1059;52.548;13.408;2023-02-28T15:30:57;13.80;16.80
2106;DHT22;1059;52.548;13.408;2023-02-28T15:33:25;13.80;17.10
2106;DHT22;1059;52.548;13.408;2023-02-28T15:36:05;13.50;16.70
2106;DHT22;1059;52.548;13.408;2023-02-28T15:38:35;13.50;17.20
2106;DHT22;1059;52.548;13.408;2023-02-28T15:41:02;13.60;18.10
2106;DHT22;1059;52.548;13.408;2023-02-28T15:43:36;13.70;17.80
2106;DHT22;1059;52.548;13.408;2023-02-28T15:46:04;13.40;18.20
2106;DHT22;1059;52.548;13.408;2023-02-28T15:48:35;13.00;17.60
2106;DHT22;1059;52.548;13.408;2023-02-28T15:51:07;13.10;18.50
2106;DHT22;1059;52.548;13.408;2023-02-28T15:53:37;12.80;18.20
2106;DHT22;1059;52.548;13.408;2023-02-28T15:56:12;13.00;19.60
2106;DHT22;1059;52.548;13.408;2023-02-28T15:58:43;13.50;20.70
2106;DHT22;1059;52.548;13.408;2023-02-28T16:01:21;13.30;17.90
2106;DHT22;1059;52.548;13.408;2023-02-28T16:03:52;13.00;19.20
2106;DHT22;1059;52.548;13.408;2023-02-28T16:06:35;13.10;19.30
2106;DHT22;1059;52.548;13.408;2023-02-28T16:09:04;12.50;19.20
2106;DHT22;1059;52.548;13.408;2023-02-28T16:11:34;12.20;19.50
2106;DHT22;1059;52.548;13.408;2023-02-28T16:14:01;11.90;19.90
2106;DHT22;1059;52.548;13.408;2023-02-28T16:16:29;11.20;20.30
2106;DHT22;1059;52.548;13.408;2023-02-28T16:18:57;10.50;20.70
2106;DHT22;1059;52.548;13.408;2023-02-28T16:21:26;10.10;21.70
2106;DHT22;1059;52.548;13.408;2023-02-28T16:23:53;9.70;22.80
2106;DHT22;1059;52.548;13.408;2023-02-28T16:26:22;9.20;23.70
2106;DHT22;1059;52.548;13.408;2023-02-28T16:28:51;8.90;24.50
2106;DHT22;1059;52.548;13.408;2023-02-28T16:31:18;8.60;25.10
2106;DHT22;1059;52.548;13.408;2023-02-28T16:33:45;8.40;25.60
2106;DHT22;1059;52.548;13.408;2023-02-28T16:36:17;8.20;26.10
2106;DHT22;1059;52.548;13.408;2023-02-28T16:38:45;8.10;26.70